Bethalto, Illinois
Current Conditions -  °F | °C
As of 5:50 PM on Thursday 27 Nov 2014 (Local Time) from KALN Reporting Station
Clear Clear  
Wind Chill: -3°   Ceiling: Unl
Heat Index: -3°   Visibility: 10mi
Dew Point: -8°   Wind: 0mph
Humidity: 69%   Direction: NA
Pressure: 30.47"   Gusts: NA
Location:  38.91°N, 90.04°W
Report Text: KALN 272350Z 00000KT 10SM SKC M03/M08 A3047
Loading
Personal Weather Stations






























Interactive Weather Map New forecast layout! Learn more

10-Day Weather Forecast

Advertisements
Track Severe Weather on mobile